createdAt,value
2023-03-21T00:02:27.978Z,68.70
2023-03-21T00:05:05.818Z,68.40
2023-03-21T00:07:39.151Z,68.50
2023-03-21T00:10:16.505Z,68.70
2023-03-21T00:12:46.437Z,68.80
2023-03-21T00:15:16.135Z,70.10
2023-03-21T00:17:47.884Z,69.60
2023-03-21T00:20:17.622Z,69.70
2023-03-21T00:22:47.478Z,69.90
2023-03-21T00:25:17.415Z,70.10
2023-03-21T00:28:05.338Z,70.30
2023-03-21T00:30:36.732Z,70.20
2023-03-21T00:33:19.811Z,70.30
2023-03-21T00:36:02.229Z,70.00
2023-03-21T00:38:35.780Z,69.90
2023-03-21T00:41:21.358Z,69.80
2023-03-21T00:44:00.690Z,69.50
2023-03-21T00:46:41.769Z,69.20
2023-03-21T00:49:13.433Z,69.00
2023-03-21T00:51:45.242Z,68.80
2023-03-21T00:54:15.636Z,68.30
2023-03-21T00:56:45.579Z,68.30
2023-03-21T00:59:15.694Z,67.90
2023-03-21T01:01:45.389Z,67.60
2023-03-21T01:04:18.195Z,67.70
2023-03-21T01:06:48.047Z,67.30
2023-03-21T01:09:20.586Z,67.00
2023-03-21T01:11:51.597Z,66.90
2023-03-21T01:14:23.897Z,66.70
2023-03-21T01:16:55.037Z,66.50
2023-03-21T01:19:52.066Z,66.20
2023-03-21T01:22:19.612Z,66.00
2023-03-21T01:24:56.936Z,65.70
2023-03-21T01:27:30.135Z,65.40
2023-03-21T01:30:00.166Z,65.10
2023-03-21T01:32:29.877Z,65.10
2023-03-21T01:34:59.589Z,65.00
2023-03-21T01:37:29.303Z,64.40
2023-03-21T01:39:58.896Z,64.30
2023-03-21T01:42:28.584Z,63.90
2023-03-21T01:45:03.828Z,64.00
2023-03-21T01:47:33.505Z,63.60
2023-03-21T01:50:05.704Z,63.50
2023-03-21T01:52:39.401Z,63.20
2023-03-21T01:55:14.062Z,63.30
2023-03-21T01:58:04.363Z,63.10
2023-03-21T02:00:36.017Z,62.80
2023-03-21T02:03:15.204Z,63.00
2023-03-21T02:06:26.295Z,62.60
2023-03-21T02:08:56.437Z,62.60
2023-03-21T02:11:26.096Z,62.20
2023-03-21T02:14:06.380Z,62.30
2023-03-21T02:16:57.740Z,61.80
2023-03-21T02:19:59.787Z,61.50
2023-03-21T02:22:46.704Z,60.70
2023-03-21T02:25:51.467Z,60.50
2023-03-21T02:28:48.716Z,58.50
2023-03-21T02:31:52.285Z,59.00
2023-03-21T02:34:55.844Z,59.00
2023-03-21T02:37:38.669Z,57.90
2023-03-21T02:40:36.746Z,58.50
2023-03-21T02:43:38.823Z,58.30
2023-03-21T02:46:39.950Z,58.00
2023-03-21T02:49:50.948Z,58.00
2023-03-21T02:52:37.797Z,58.40
2023-03-21T02:55:17.065Z,58.00
2023-03-21T02:57:50.414Z,58.00
2023-03-21T03:00:23.447Z,57.70
2023-03-21T03:03:06.286Z,57.50
2023-03-21T03:05:44.472Z,57.20
2023-03-21T03:09:02.351Z,56.80
2023-03-21T03:11:43.725Z,56.00
2023-03-21T03:15:02.380Z,55.50
2023-03-21T03:18:12.070Z,54.90
2023-03-21T03:21:10.712Z,54.20
2023-03-21T03:23:55.816Z,54.00
2023-03-21T03:26:50.598Z,54.40
2023-03-21T03:29:23.494Z,54.20
2023-03-21T03:32:14.450Z,53.90
2023-03-21T03:34:51.348Z,53.00
2023-03-21T03:37:27.963Z,52.90
2023-03-21T03:40:12.947Z,52.80
2023-03-21T03:42:56.176Z,52.90
2023-03-21T03:45:37.362Z,52.20
2023-03-21T03:48:26.973Z,50.70
2023-03-21T03:51:19.096Z,51.10
2023-03-21T03:53:59.340Z,51.20
2023-03-21T03:56:30.004Z,50.80
2023-03-21T03:59:00.360Z,50.60
2023-03-21T04:01:30.899Z,50.40
2023-03-21T04:04:12.574Z,50.40
2023-03-21T04:06:43.146Z,50.80
2023-03-21T04:09:21.943Z,49.50
2023-03-21T04:11:54.837Z,49.70
2023-03-21T04:14:28.694Z,49.50
2023-03-21T04:17:02.792Z,50.00
2023-03-21T04:19:32.864Z,49.10
2023-03-21T04:22:02.982Z,48.50
2023-03-21T04:24:35.563Z,48.90
2023-03-21T04:27:07.367Z,49.00
2023-03-21T04:29:37.125Z,47.60
2023-03-21T04:32:07.997Z,48.10
2023-03-21T04:34:42.034Z,48.30
2023-03-21T04:37:15.176Z,48.30
2023-03-21T04:39:44.894Z,48.30
2023-03-21T04:42:16.148Z,48.30
2023-03-21T04:44:46.105Z,47.80
2023-03-21T04:47:17.700Z,47.80
2023-03-21T04:49:47.402Z,47.40
2023-03-21T04:52:17.912Z,47.20
2023-03-21T04:54:47.970Z,47.50
2023-03-21T04:57:17.561Z,47.70
2023-03-21T04:59:47.625Z,48.00
2023-03-21T05:02:17.729Z,48.30
2023-03-21T05:04:47.503Z,48.20
2023-03-21T05:07:17.215Z,48.20
2023-03-21T05:09:47.201Z,47.50
2023-03-21T05:12:17.463Z,47.30
2023-03-21T05:14:47.014Z,47.70
2023-03-21T05:17:24.708Z,46.60
2023-03-21T05:19:54.616Z,45.50
2023-03-21T05:22:26.421Z,44.50
2023-03-21T05:24:57.067Z,45.60
2023-03-21T05:27:37.184Z,45.30
2023-03-21T05:30:13.643Z,45.40
2023-03-21T05:32:43.308Z,44.60
2023-03-21T05:35:14.633Z,45.00
2023-03-21T05:37:44.297Z,45.00
2023-03-21T05:40:14.567Z,44.00
2023-03-21T05:42:44.229Z,43.00
2023-03-21T05:45:14.184Z,42.70
2023-03-21T05:47:43.838Z,43.00
2023-03-21T05:50:15.093Z,42.20
2023-03-21T05:52:44.732Z,42.60
2023-03-21T05:55:14.428Z,40.80
2023-03-21T05:57:44.050Z,40.50
2023-03-21T06:00:14.269Z,41.30
2023-03-21T06:02:44.007Z,40.40
2023-03-21T06:05:13.745Z,41.00
2023-03-21T06:07:43.298Z,40.70
2023-03-21T06:10:13.513Z,40.80
2023-03-21T06:12:44.864Z,41.30
2023-03-21T06:15:14.852Z,42.20
2023-03-21T06:17:44.461Z,42.80
2023-03-21T06:20:15.161Z,41.80
2023-03-21T06:22:44.837Z,41.60
2023-03-21T06:25:14.636Z,42.30
2023-03-21T06:27:44.532Z,41.40
2023-03-21T06:30:14.661Z,42.00
2023-03-21T06:32:44.266Z,41.70
2023-03-21T06:35:14.055Z,42.30
2023-03-21T06:37:45.110Z,42.40
2023-03-21T06:40:15.431Z,42.90
2023-03-21T06:42:45.052Z,42.80
2023-03-21T06:45:14.651Z,43.10
2023-03-21T06:47:44.334Z,42.30
2023-03-21T06:50:14.425Z,42.70
2023-03-21T06:52:44.110Z,41.60
2023-03-21T06:55:14.289Z,42.30
2023-03-21T06:57:43.934Z,42.30
2023-03-21T07:00:14.499Z,42.10
2023-03-21T07:02:44.217Z,42.70
2023-03-21T07:05:14.126Z,42.90
2023-03-21T07:07:43.884Z,42.70
2023-03-21T07:10:13.936Z,43.10
2023-03-21T07:12:44.198Z,43.40
2023-03-21T07:15:13.976Z,42.80
2023-03-21T07:17:43.645Z,43.40
2023-03-21T07:20:14.422Z,43.00
2023-03-21T07:22:44.405Z,43.90
2023-03-21T07:25:14.817Z,43.60
2023-03-21T07:27:44.482Z,43.80
2023-03-21T07:30:15.414Z,43.90
2023-03-21T07:32:47.274Z,43.40
2023-03-21T07:35:21.453Z,41.80
2023-03-21T07:37:51.284Z,41.30
2023-03-21T07:40:21.152Z,41.40
2023-03-21T07:42:52.728Z,41.40
2023-03-21T07:45:25.335Z,41.80
2023-03-21T07:47:55.416Z,42.60
2023-03-21T07:50:25.184Z,42.50
2023-03-21T07:52:55.624Z,42.60
2023-03-21T07:55:25.478Z,41.70
2023-03-21T07:57:55.711Z,41.00
2023-03-21T08:00:25.711Z,41.10
2023-03-21T08:02:58.871Z,40.50
2023-03-21T08:05:36.541Z,41.00
2023-03-21T08:08:07.910Z,41.80
2023-03-21T08:10:38.415Z,41.00
2023-03-21T08:13:08.057Z,41.10
2023-03-21T08:15:38.061Z,41.60
2023-03-21T08:18:08.105Z,41.60
2023-03-21T08:20:37.834Z,41.50
2023-03-21T08:23:07.543Z,41.30
2023-03-21T08:25:37.599Z,40.60
2023-03-21T08:28:07.540Z,41.20
2023-03-21T08:30:37.574Z,40.90
2023-03-21T08:33:07.232Z,40.80
2023-03-21T08:35:39.635Z,41.10
2023-03-21T08:38:11.873Z,41.30
2023-03-21T08:40:41.790Z,41.30
2023-03-21T08:43:13.116Z,40.80
2023-03-21T08:45:43.957Z,41.20
2023-03-21T08:48:13.636Z,41.40
2023-03-21T08:50:43.232Z,41.40
2023-03-21T08:53:13.113Z,41.30
2023-03-21T08:55:42.715Z,42.10
2023-03-21T08:58:12.949Z,42.10
2023-03-21T09:00:42.718Z,41.90
2023-03-21T09:03:12.312Z,42.00
2023-03-21T09:05:42.412Z,41.60
2023-03-21T09:08:14.712Z,41.60
2023-03-21T09:10:44.316Z,41.20
2023-03-21T09:13:13.958Z,41.20
2023-03-21T09:15:43.692Z,41.60
2023-03-21T09:18:17.821Z,41.20
2023-03-21T09:20:49.009Z,40.50
2023-03-21T09:23:19.980Z,41.40
2023-03-21T09:25:50.210Z,41.10
2023-03-21T09:28:19.871Z,40.80
2023-03-21T09:30:49.904Z,40.50
2023-03-21T09:33:22.905Z,40.60
2023-03-21T09:35:52.664Z,40.90
2023-03-21T09:38:22.561Z,41.00
2023-03-21T09:41:31.448Z,40.70
2023-03-21T09:44:40.256Z,40.60
2023-03-21T09:47:34.892Z,40.90
2023-03-21T09:50:18.944Z,40.90
2023-03-21T09:52:56.174Z,41.30
2023-03-21T09:55:32.724Z,40.60
2023-03-21T09:58:34.404Z,39.70
2023-03-21T10:01:29.915Z,39.60
2023-03-21T10:04:03.065Z,40.00
2023-03-21T10:06:33.577Z,40.10
2023-03-21T10:09:10.922Z,40.70
2023-03-21T10:11:52.589Z,40.80
2023-03-21T10:14:36.898Z,41.10
2023-03-21T10:17:32.818Z,40.90
2023-03-21T10:20:24.639Z,41.00
2023-03-21T10:22:57.742Z,41.20
2023-03-21T10:25:38.619Z,41.30
2023-03-21T10:28:11.490Z,41.60
2023-03-21T10:30:50.967Z,41.80
2023-03-21T10:33:26.299Z,41.50
2023-03-21T10:36:04.526Z,41.60
2023-03-21T10:38:34.351Z,42.20
2023-03-21T10:41:04.101Z,43.00
2023-03-21T10:43:39.420Z,44.60
2023-03-21T10:46:23.064Z,44.80
2023-03-21T10:48:56.847Z,47.40
2023-03-21T10:51:33.664Z,50.00
2023-03-21T10:54:16.172Z,50.50
2023-03-21T10:57:07.643Z,48.30
2023-03-21T11:00:02.747Z,50.30
2023-03-21T11:02:39.080Z,47.90
2023-03-21T11:05:35.655Z,47.80
2023-03-21T11:08:25.120Z,44.10
2023-03-21T11:11:03.550Z,47.40
2023-03-21T11:13:42.461Z,48.70
2023-03-21T11:16:14.693Z,49.40
2023-03-21T11:18:53.098Z,48.10
2023-03-21T11:21:23.843Z,46.70
2023-03-21T11:23:54.645Z,47.60
2023-03-21T11:26:38.222Z,47.70
2023-03-21T11:29:34.809Z,48.30
2023-03-21T11:32:22.562Z,48.80
2023-03-21T11:35:12.215Z,49.00
2023-03-21T11:37:49.338Z,49.20
2023-03-21T11:40:35.129Z,49.30
2023-03-21T11:43:33.672Z,49.70
2023-03-21T11:46:17.425Z,49.90
2023-03-21T11:48:52.384Z,50.10
2023-03-21T11:51:50.980Z,50.20
2023-03-21T11:54:49.216Z,50.70
2023-03-21T11:58:00.183Z,51.00
2023-03-21T12:00:44.357Z,52.20
2023-03-21T12:03:48.378Z,53.00
2023-03-21T12:06:45.909Z,53.20
2023-03-21T12:09:43.760Z,53.10
2023-03-21T12:12:45.901Z,52.80
2023-03-21T12:15:55.628Z,54.90
2023-03-21T12:19:00.150Z,54.60
2023-03-21T12:21:40.690Z,56.10
2023-03-21T12:24:20.602Z,53.90
2023-03-21T12:27:07.957Z,51.40
2023-03-21T12:29:57.152Z,52.70
2023-03-21T12:32:54.178Z,52.20
2023-03-21T12:35:53.592Z,53.30
2023-03-21T12:38:35.189Z,54.30
2023-03-21T12:41:35.253Z,54.70
2023-03-21T12:44:25.982Z,54.20
2023-03-21T12:47:05.618Z,53.50
2023-03-21T12:49:40.414Z,53.50
2023-03-21T12:52:16.089Z,53.70
2023-03-21T12:55:04.796Z,53.60
2023-03-21T12:57:57.967Z,53.40
2023-03-21T13:00:49.762Z,53.60
2023-03-21T13:03:39.796Z,53.60
2023-03-21T13:06:13.692Z,53.80
2023-03-21T13:08:51.945Z,56.20
2023-03-21T13:11:25.729Z,55.90
2023-03-21T13:14:14.305Z,55.90
2023-03-21T13:16:59.250Z,55.70
2023-03-21T13:19:53.354Z,55.50
2023-03-21T13:22:33.158Z,59.50
2023-03-21T13:25:09.227Z,59.10
2023-03-21T13:27:43.813Z,59.00
2023-03-21T13:30:28.248Z,58.90
2023-03-21T13:33:23.602Z,59.10
2023-03-21T13:36:08.882Z,59.40
2023-03-21T13:38:42.734Z,59.40
2023-03-21T13:41:17.546Z,59.40
2023-03-21T13:44:11.771Z,59.80
2023-03-21T13:47:05.591Z,60.20
2023-03-21T13:49:38.521Z,60.50
2023-03-21T13:52:29.313Z,60.50
2023-03-21T13:55:04.725Z,60.80
2023-03-21T13:57:41.489Z,61.30
2023-03-21T14:00:27.254Z,62.80
2023-03-21T14:03:02.760Z,64.60
2023-03-21T14:05:32.396Z,64.90
2023-03-21T14:08:17.344Z,65.60
2023-03-21T14:10:58.275Z,65.70
2023-03-21T14:13:29.834Z,65.00
2023-03-21T14:16:09.358Z,65.10
2023-03-21T14:18:55.896Z,65.40
2023-03-21T14:21:30.009Z,65.60
2023-03-21T14:24:08.724Z,65.50
2023-03-21T14:26:45.360Z,65.30
2023-03-21T14:29:26.441Z,65.00
2023-03-21T14:32:01.907Z,64.90
2023-03-21T14:34:34.531Z,65.10
2023-03-21T14:37:04.150Z,65.00
2023-03-21T14:39:35.313Z,64.90
2023-03-21T14:42:10.155Z,65.10
2023-03-21T14:44:57.862Z,65.30
2023-03-21T14:47:30.968Z,65.30
2023-03-21T14:50:02.854Z,65.80
2023-03-21T14:52:34.834Z,65.20
2023-03-21T14:55:13.442Z,65.40
2023-03-21T14:57:43.347Z,65.70
2023-03-21T15:00:25.242Z,65.80
2023-03-21T15:02:56.017Z,66.70
2023-03-21T15:05:38.842Z,66.80
2023-03-21T15:08:20.211Z,66.30
2023-03-21T15:11:10.813Z,66.90
2023-03-21T15:13:51.932Z,68.20
2023-03-21T15:16:23.084Z,68.80
2023-03-21T15:18:53.559Z,69.10
2023-03-21T15:21:33.931Z,69.40
2023-03-21T15:24:20.133Z,69.70
2023-03-21T15:26:51.691Z,69.60
2023-03-21T15:29:21.912Z,69.30
2023-03-21T15:31:51.697Z,69.40
2023-03-21T15:46:22.158Z,68.40
2023-03-21T15:49:08.300Z,69.10
2023-03-21T15:51:38.396Z,69.20
2023-03-21T15:54:14.451Z,69.40
2023-03-21T15:56:47.768Z,69.20
2023-03-21T15:59:22.457Z,68.80
2023-03-21T16:01:52.789Z,68.30
2023-03-21T16:04:25.388Z,68.00
2023-03-21T16:07:06.287Z,67.70
2023-03-21T16:09:47.058Z,67.70
2023-03-21T16:12:18.916Z,67.70
2023-03-21T16:14:50.442Z,67.70
2023-03-21T16:17:43.220Z,67.80
2023-03-21T16:20:21.906Z,67.70
2023-03-21T16:22:52.172Z,68.00
2023-03-21T16:25:23.395Z,68.80
2023-03-21T16:27:53.580Z,69.20
2023-03-21T16:30:24.778Z,68.80
2023-03-21T16:32:54.732Z,68.60
2023-03-21T16:35:26.216Z,68.10
2023-03-21T16:37:55.994Z,67.70
2023-03-21T16:40:37.222Z,67.30
2023-03-21T16:43:07.352Z,66.70
2023-03-21T16:45:37.634Z,66.40
2023-03-21T16:48:10.420Z,66.30
2023-03-21T16:50:44.641Z,66.10
2023-03-21T16:53:14.313Z,66.00
2023-03-21T16:55:44.535Z,65.80
2023-03-21T16:58:18.152Z,65.80
2023-03-21T17:00:47.974Z,65.70
2023-03-21T17:03:23.196Z,65.60
2023-03-21T17:05:52.964Z,65.20
2023-03-21T17:08:23.536Z,65.10
2023-03-21T17:10:53.344Z,65.90
2023-03-21T17:17:04.331Z,67.30
2023-03-21T17:19:34.239Z,67.90
2023-03-21T17:22:04.211Z,68.40
2023-03-21T17:24:34.884Z,68.30
2023-03-21T17:27:06.689Z,68.20
2023-03-21T17:29:36.689Z,68.30
2023-03-21T17:32:06.754Z,68.30
2023-03-21T17:34:36.651Z,68.10
2023-03-21T17:37:06.504Z,67.80
2023-03-21T17:39:36.433Z,67.80
2023-03-21T17:42:17.459Z,67.70
2023-03-21T17:44:47.587Z,68.10
2023-03-21T17:47:18.632Z,68.50
2023-03-21T17:49:49.419Z,68.80
2023-03-21T17:52:19.301Z,68.90
2023-03-21T17:54:49.460Z,68.80
2023-03-21T17:57:19.380Z,69.00
2023-03-21T17:59:49.319Z,69.00
2023-03-21T18:02:20.079Z,69.20
2023-03-21T18:04:50.255Z,69.00
2023-03-21T18:07:34.979Z,68.90
2023-03-21T18:10:14.790Z,68.90
2023-03-21T18:12:45.841Z,68.90
2023-03-21T18:15:19.417Z,68.90
2023-03-21T18:17:50.347Z,69.90
2023-03-21T18:20:23.727Z,70.00
2023-03-21T18:22:54.455Z,70.20
2023-03-21T18:25:24.391Z,70.70
2023-03-21T18:28:09.827Z,71.10
2023-03-21T18:33:32.077Z,71.10
2023-03-21T18:36:07.000Z,71.00
2023-03-21T18:38:38.766Z,71.00
2023-03-21T18:41:10.180Z,70.70
2023-03-21T18:44:01.311Z,70.90
2023-03-21T18:46:32.430Z,71.10
2023-03-21T18:49:33.307Z,72.00
2023-03-21T18:51:54.404Z,72.40
2023-03-21T18:54:25.362Z,72.80
2023-03-21T18:57:33.661Z,72.80
2023-03-21T18:59:46.343Z,73.50
2023-03-21T19:02:18.130Z,73.80
2023-03-21T19:04:48.290Z,74.80
2023-03-21T19:07:18.429Z,75.20
2023-03-21T19:10:10.699Z,75.10
2023-03-21T19:12:38.264Z,75.70
2023-03-21T19:15:10.080Z,75.80
2023-03-21T19:20:30.562Z,74.80
2023-03-21T19:23:00.412Z,74.40
2023-03-21T19:25:30.444Z,74.20
2023-03-21T19:28:00.430Z,73.70
2023-03-21T19:30:30.364Z,73.60
2023-03-21T19:33:00.222Z,73.20
2023-03-21T19:35:30.269Z,73.00
2023-03-21T19:38:00.736Z,72.70
2023-03-21T19:40:30.735Z,72.30
2023-03-21T19:43:14.335Z,71.80
2023-03-21T19:45:50.721Z,71.60
2023-03-21T19:48:21.366Z,71.30
2023-03-21T19:51:20.540Z,71.20
2023-03-21T19:53:42.208Z,70.90
2023-03-21T19:56:22.449Z,70.30
2023-03-21T19:58:53.038Z,70.00
2023-03-21T20:01:23.176Z,69.80
2023-03-21T20:03:53.356Z,69.60
2023-03-21T20:06:26.722Z,69.60
2023-03-21T20:09:41.410Z,69.40
2023-03-21T20:11:47.553Z,69.50
2023-03-21T20:14:17.390Z,69.60
2023-03-21T20:16:47.309Z,69.70
2023-03-21T20:19:17.972Z,69.70
2023-03-21T20:21:57.908Z,70.40
2023-03-21T20:24:29.286Z,69.80
2023-03-21T20:26:59.885Z,69.70
2023-03-21T20:32:19.942Z,69.90
2023-03-21T20:34:50.248Z,69.90
2023-03-21T20:37:20.216Z,70.00
2023-03-21T20:39:50.002Z,69.90
2023-03-21T20:42:19.810Z,69.90
2023-03-21T20:44:58.756Z,69.60
2023-03-21T20:47:29.812Z,69.50
2023-03-21T20:50:00.183Z,69.40
2023-03-21T20:55:23.260Z,70.60
2023-03-21T20:57:53.832Z,71.20
2023-03-21T21:00:24.177Z,71.80
2023-03-21T21:02:54.153Z,71.90
2023-03-21T21:05:29.282Z,72.30
2023-03-21T21:08:00.808Z,72.70
2023-03-21T21:10:31.435Z,72.70
2023-03-21T21:13:01.513Z,73.10
2023-03-21T21:15:31.454Z,73.70
2023-03-21T21:18:05.994Z,74.00
2023-03-21T21:20:38.774Z,74.00
2023-03-21T21:23:09.924Z,74.20
2023-03-21T21:25:40.348Z,73.70
2023-03-21T21:28:11.210Z,73.50
2023-03-21T21:30:42.963Z,73.50
2023-03-21T21:33:13.006Z,73.40
2023-03-21T21:35:50.359Z,73.50
2023-03-21T21:38:21.650Z,73.60
2023-03-21T21:40:53.814Z,73.70
2023-03-21T21:43:24.728Z,74.00
2023-03-21T21:45:55.216Z,74.10
2023-03-21T21:48:25.536Z,74.10
2023-03-21T21:50:56.266Z,74.20
2023-03-21T21:53:29.966Z,74.00
2023-03-21T21:56:03.731Z,73.90
2023-03-21T21:58:40.385Z,73.80
2023-03-21T22:01:10.300Z,73.90
2023-03-21T22:03:43.013Z,73.80
2023-03-21T22:06:13.132Z,74.10
2023-03-21T22:08:48.787Z,74.10
2023-03-21T22:11:20.337Z,73.90
2023-03-21T22:13:50.379Z,74.00
2023-03-21T22:16:20.432Z,74.00
2023-03-21T22:18:50.408Z,74.00
2023-03-21T22:21:20.629Z,74.30
2023-03-21T22:23:50.620Z,74.70
2023-03-21T22:26:20.668Z,74.90
2023-03-21T22:28:50.663Z,74.90
2023-03-21T22:31:20.769Z,74.90
2023-03-21T22:33:50.757Z,75.10
2023-03-21T22:36:21.921Z,75.20
2023-03-21T22:38:51.776Z,75.40
2023-03-21T22:41:21.693Z,75.80
2023-03-21T22:43:51.632Z,76.20
2023-03-21T22:46:21.618Z,76.20
2023-03-21T22:48:51.439Z,76.10
2023-03-21T22:51:21.319Z,76.10
2023-03-21T22:53:51.248Z,76.20
2023-03-21T22:56:22.121Z,76.30
2023-03-21T22:58:52.168Z,76.30
2023-03-21T23:01:22.274Z,76.40
2023-03-21T23:03:52.210Z,76.30
2023-03-21T23:06:22.277Z,76.20
2023-03-21T23:08:52.208Z,76.30
2023-03-21T23:11:21.955Z,76.30
2023-03-21T23:14:06.827Z,76.20
2023-03-21T23:16:39.966Z,76.00
2023-03-21T23:19:10.831Z,76.10
2023-03-21T23:21:41.769Z,76.20
2023-03-21T23:24:12.389Z,75.90
2023-03-21T23:26:42.577Z,76.70
2023-03-21T23:29:13.265Z,76.60
2023-03-21T23:31:43.408Z,76.40
2023-03-21T23:34:15.742Z,76.40
2023-03-21T23:36:45.556Z,76.50
2023-03-21T23:39:15.403Z,76.40
2023-03-21T23:41:46.853Z,76.30
2023-03-21T23:44:17.226Z,76.40
2023-03-21T23:46:47.405Z,76.60
2023-03-21T23:49:17.368Z,76.80
2023-03-21T23:51:47.816Z,76.70
2023-03-21T23:54:17.849Z,76.70
2023-03-21T23:56:48.691Z,76.60
2023-03-21T23:59:18.652Z,76.60
